createdAt,value
2023-05-11T16:35:19.321Z,100367.94
2023-05-11T16:37:52.696Z,100367.19
2023-05-11T16:40:19.433Z,100360.22
2023-05-11T16:42:45.972Z,100370.81
2023-05-11T16:45:12.207Z,100370.50
2023-05-11T16:47:38.390Z,100365.13
2023-05-11T16:50:04.649Z,100375.00
2023-05-11T16:52:30.847Z,100379.84
2023-05-11T16:55:00.138Z,100380.97
2023-05-11T16:57:26.367Z,100386.19
2023-05-11T16:59:54.718Z,100381.97
2023-05-11T17:02:21.064Z,100379.84
2023-05-11T17:04:48.818Z,100376.69
2023-05-11T17:07:15.078Z,100385.91
2023-05-11T17:09:41.283Z,100383.47
2023-05-11T17:12:07.531Z,100385.69
2023-05-11T17:17:32.278Z,100391.16
2023-05-11T17:19:58.473Z,100387.97
2023-05-11T17:22:24.650Z,100393.34
2023-05-11T17:24:50.844Z,100395.72
2023-05-11T17:27:17.031Z,100398.34
2023-05-11T17:29:43.221Z,100393.75
2023-05-11T17:32:09.620Z,100402.38
2023-05-11T17:34:35.961Z,100407.09
2023-05-11T17:37:02.217Z,100400.06
2023-05-11T17:39:28.416Z,100408.19
2023-05-11T17:41:54.590Z,100401.47
2023-05-11T17:44:20.806Z,100403.00
2023-05-11T17:46:47.092Z,100405.28
2023-05-11T17:49:16.337Z,100409.63
2023-05-11T17:51:42.496Z,100413.53
2023-05-11T17:54:11.237Z,100414.09
2023-05-11T17:56:37.456Z,100415.88
2023-05-11T17:59:03.668Z,100422.06
2023-05-11T18:01:29.908Z,100419.53
2023-05-11T18:03:56.242Z,100414.09
2023-05-11T18:06:22.527Z,100419.63
2023-05-11T18:08:48.729Z,100420.09
2023-05-11T18:11:14.923Z,100430.28
2023-05-11T18:13:43.591Z,100431.31
2023-05-11T18:16:09.857Z,100430.56
2023-05-11T18:18:36.115Z,100428.22
2023-05-11T18:21:02.375Z,100421.47
2023-05-11T18:23:31.478Z,100425.13
2023-05-11T18:25:57.676Z,100435.81
2023-05-11T18:28:23.924Z,100431.84
2023-05-11T18:30:50.203Z,100434.09
2023-05-11T18:33:23.713Z,100437.28
2023-05-11T18:35:52.231Z,100436.94
2023-05-11T18:38:20.523Z,100442.47
2023-05-11T18:40:48.819Z,100442.06
2023-05-11T18:43:15.000Z,100442.94
2023-05-11T18:45:41.375Z,100447.31
2023-05-11T18:48:07.842Z,100443.84
2023-05-11T18:50:34.200Z,100444.69
2023-05-11T18:53:00.447Z,100447.50
2023-05-11T18:55:29.102Z,100452.16
2023-05-11T18:57:58.415Z,100442.94
2023-05-11T19:00:25.794Z,100446.34
2023-05-11T19:02:52.176Z,100449.13
2023-05-11T19:05:24.574Z,100458.84
2023-05-11T19:07:50.804Z,100459.03
2023-05-11T19:10:17.127Z,100453.34
2023-05-11T19:12:43.421Z,100462.91
2023-05-11T19:15:09.594Z,100469.22
2023-05-11T19:17:35.871Z,100471.81
2023-05-11T19:20:02.042Z,100464.22
2023-05-11T19:22:32.552Z,100465.19
2023-05-11T19:24:58.726Z,100473.03
2023-05-11T19:27:24.906Z,100467.94
2023-05-11T19:29:51.199Z,100474.22
2023-05-11T19:32:17.528Z,100473.94
2023-05-11T19:34:43.747Z,100473.19
2023-05-11T19:37:10.043Z,100476.06
2023-05-11T19:39:36.266Z,100475.13
2023-05-11T19:42:02.479Z,100474.56
2023-05-11T19:44:28.697Z,100486.69
2023-05-11T19:46:54.930Z,100479.63
2023-05-11T19:49:21.141Z,100482.16
2023-05-11T19:51:47.340Z,100485.16
2023-05-11T19:54:14.677Z,100488.72
2023-05-11T19:56:41.052Z,100485.25
2023-05-11T19:59:07.219Z,100487.78
2023-05-11T20:01:33.635Z,100488.03
2023-05-11T20:04:00.056Z,100484.44
2023-05-11T20:06:26.392Z,100487.88
2023-05-11T20:08:53.138Z,100488.91
2023-05-11T20:11:19.436Z,100494.97
2023-05-11T20:13:45.634Z,100491.53
2023-05-11T20:16:11.833Z,100494.13
2023-05-11T20:18:38.143Z,100495.97
2023-05-11T20:21:05.369Z,100498.59
2023-05-11T20:23:31.560Z,100495.31
2023-05-11T20:25:57.800Z,100490.16
2023-05-11T20:28:24.092Z,100497.16
2023-05-11T20:30:50.299Z,100489.97
2023-05-11T20:35:45.720Z,100481.44
2023-05-11T20:38:11.877Z,100480.69
2023-05-11T20:40:38.079Z,100477.25
2023-05-11T20:43:04.299Z,100474.72
2023-05-11T20:45:30.531Z,100467.69
2023-05-11T20:47:56.882Z,100467.88
2023-05-11T20:50:23.133Z,100468.88
2023-05-11T20:52:49.339Z,100468.28
2023-05-11T20:55:15.564Z,100467.69
2023-05-11T20:57:41.788Z,100474.53
2023-05-11T21:00:08.029Z,100466.25
2023-05-11T21:02:34.402Z,100467.31
2023-05-11T21:05:00.680Z,100464.06
2023-05-11T21:07:26.886Z,100456.13
2023-05-11T21:09:53.050Z,100459.44
2023-05-11T21:12:19.278Z,100450.56
2023-05-11T21:14:45.458Z,100455.00
2023-05-11T21:17:11.729Z,100455.28
2023-05-11T21:19:38.039Z,100456.13
2023-05-11T21:22:04.274Z,100445.97
2023-05-11T21:24:30.496Z,100451.19
2023-05-11T21:26:56.695Z,100447.69
2023-05-11T21:29:22.932Z,100451.47
2023-05-11T21:31:49.145Z,100452.63
2023-05-11T21:34:15.380Z,100462.25
2023-05-11T21:36:41.571Z,100465.09
2023-05-11T21:39:07.749Z,100462.63
2023-05-11T21:41:33.946Z,100458.34
2023-05-11T21:44:00.136Z,100461.06
2023-05-11T21:46:26.300Z,100463.66
2023-05-11T21:48:52.541Z,100453.91
2023-05-11T21:51:18.698Z,100454.72
2023-05-11T21:53:44.893Z,100461.97
2023-05-11T21:56:11.028Z,100461.97
2023-05-11T21:58:37.153Z,100454.19
2023-05-11T22:01:03.365Z,100468.88
2023-05-11T22:03:29.619Z,100461.97
2023-05-11T22:05:55.841Z,100461.97
2023-05-11T22:08:21.967Z,100461.78
2023-05-11T22:10:48.087Z,100451.31
2023-05-11T22:13:14.236Z,100461.75
2023-05-11T22:15:40.358Z,100458.19
2023-05-11T22:18:06.617Z,100450.72
2023-05-11T22:20:32.890Z,100450.13
2023-05-11T22:22:59.142Z,100451.91
2023-05-11T22:25:25.456Z,100457.97
2023-05-11T22:27:51.599Z,100452.75
2023-05-11T22:30:17.949Z,100444.69
2023-05-11T22:32:44.431Z,100450.81
2023-05-11T22:35:10.631Z,100443.81
2023-05-11T22:37:36.828Z,100444.06
2023-05-11T22:40:02.997Z,100447.69
2023-05-11T22:42:29.124Z,100452.09
2023-05-11T22:44:55.293Z,100444.38
2023-05-11T22:47:21.499Z,100450.38
2023-05-11T22:49:47.674Z,100456.53
2023-05-11T22:52:13.815Z,100455.59
2023-05-11T22:54:39.983Z,100447.59
2023-05-11T22:57:06.180Z,100450.91
2023-05-11T22:59:32.359Z,100447.22
2023-05-11T23:01:58.524Z,100457.75
2023-05-11T23:04:24.734Z,100444.69
2023-05-11T23:06:50.944Z,100440.34
2023-05-11T23:09:17.115Z,100446.34
2023-05-11T23:11:43.300Z,100448.06
2023-05-11T23:14:09.472Z,100442.84
2023-05-11T23:16:35.654Z,100440.22
2023-05-11T23:19:01.938Z,100447.28
2023-05-11T23:21:28.242Z,100450.06
2023-05-11T23:23:54.449Z,100443.91
2023-05-11T23:26:20.582Z,100443.06
2023-05-11T23:28:46.719Z,100443.75
2023-05-11T23:31:12.935Z,100450.13
2023-05-11T23:33:39.103Z,100443.31
2023-05-11T23:36:05.241Z,100451.31
2023-05-11T23:38:31.484Z,100439.09
2023-05-11T23:40:57.647Z,100444.31
2023-05-11T23:43:23.775Z,100415.44
2023-05-11T23:45:49.974Z,100437.22
2023-05-11T23:48:16.136Z,100436.22
2023-05-11T23:50:42.281Z,100438.75
2023-05-11T23:53:08.434Z,100435.28
2023-05-11T23:55:34.595Z,100430.06
2023-05-11T23:58:00.728Z,100436.22
